Airfield :
LOGIN :

Register | Disclaimer

   EN    FR    IT 

 










Legend :    VFR   Marginal VFR   IFR   Intensive IFR   Very Intensive IFR
Visi :
Ceiling :
>= 8 km
>= 3000ft
5 to 8 km
1000 to 3000 ft
1500m to 5 km
500 to 1000 ft
800 to 1500m
200 to 500 ft
< 800m
< 200 ft
Symbols :   Thunderstorms  Fog  Heavy snow  Heavy precipitations  Wind > 20 kt
SIGMETs :     Misc.  Thunderstorms  Icing  Turbulence  Mountain Waves  Volcanic Ashes







- Airport Elevation : 228 ft
- IATA code : OPO


LPPR - Porto Fr. Sa Carneiro

CURRENT METAR :
  • 190130Z 13006KT 9000 FEW040 07/06 Q1018

EXPIRED METARs :
  • 190100Z 13007KT 8000 FEW040 07/06 Q1018
  • 190030Z 13008KT 8000 SCT040 07/06 Q1019
  • 190000Z 13007KT 8000 FEW014 SCT040 08/07 Q1019
  • 182330Z 10003KT 050V140 9000 SCT015 BKN040 08/07 Q1020
  • 182300Z 07001KT 9000 FEW015 SCT017 BKN040 07/07 Q1019

TAF TAF LPPR
Valid from the 19 at 00:00 until the 20 at 00:00 UTC


182300Z 1900/1924 15007KT 9999 SCT015 BKN035
TEMPO 1902/1921 5000 -RA BR SCT005 BKN010
BECMG 1907/1909 18013KT SCT008 BKN015
PROB40
TEMPO 1909/1915 2000 RADZ BR SCT002 BKN004
BECMG 1913/1915 29013KT
BECMG 1921/1923 35018G30KT FEW010 SCT018
No reported NOTAMs for that airfield.



MET'MAP, your aeronautical weather chart ! - Copyright ORBIFLY December 2007 - Disclaimer

ORBIFLY MET'MAP TEAM :

Programming & Development : Alexandra Zaïnal
Concept & Development : Baudouin d'Aumeries
Co-Development & Prog : Marc-Olivier Méhu
Technical & hardware support : Manuel Goepfert

Contact : metmap@orbifly.com




SOURCES & CREDITS :

   NOAA